Etusivu
METAR-TAF:

METAR-TAF

Lentoasemat :

Salt Point, Louisiana, Yhdysvallat

Leveyspiiri: 29-33-44N, Pituuspiiri: 091-31-32W, korkeus merenpinnasta: 0 m

Tämänhetkinen sää

Tämä raportti tehtiin 32 minuuttia sitten, kello 13.53 UTC
Tuuli 3 kn luoteesta
Lämpötila 19°C
Kosteus 88%
Ilmanpaine 1008 hPa

METAR: KP92 191353Z AUTO 31003KT 19/17 A2978 RMK AO1 SLP082 T01940167

Aika: 09:25 (14:25 UTC)


TAF: puuttuu

Säähavainnot ja -ennusteet yli 4000 lentoasemalta (METAR- ja TAF-raportit).

Käytössä olevat sääasemat on merkitty karttaan keltaisilla ja punaisilla pisteillä.

Aseta hiiri pisteen päälle nähdäksesi sääaseman nimen.

Klikkaa sitten nähdäksesi säähavainnot ja -ennusteet.

Kartan vaihtaminen: klikkaa mustalla rastilla varustettuja vihreitä pisteitä, niin voit zoomata sisään; viivalla varustettua vihreää pistettä, niin voit zoomata ulos tai vihreitä nuolia, niin pääset viereisille kartoille.


METAR-TAF: